createdAt,value
2022-09-10T00:01:24.492Z,66.50
2022-09-10T00:03:54.257Z,52.55
2022-09-10T00:06:27.888Z,68.18
2022-09-10T00:08:57.279Z,54.13
2022-09-10T00:11:26.465Z,63.17
2022-09-10T00:13:57.379Z,61.08
2022-09-10T00:16:25.517Z,70.18
2022-09-10T00:18:53.695Z,59.92
2022-09-10T00:21:22.273Z,61.78
2022-09-10T00:23:51.419Z,52.45
2022-09-10T00:26:21.740Z,60.50
2022-09-10T00:28:51.089Z,71.45
2022-09-10T00:31:21.768Z,69.82
2022-09-10T00:33:51.008Z,67.15
2022-09-10T00:36:22.647Z,48.53
2022-09-10T00:38:52.137Z,60.05
2022-09-10T00:41:22.596Z,60.55
2022-09-10T00:43:56.457Z,62.58
2022-09-10T00:46:38.178Z,70.40
2022-09-10T00:49:14.680Z,68.30
2022-09-10T00:51:43.983Z,49.88
2022-09-10T00:54:12.423Z,81.82
2022-09-10T00:56:41.075Z,83.25
2022-09-10T00:59:12.079Z,73.10
2022-09-10T01:01:42.201Z,79.75
2022-09-10T01:04:11.371Z,81.47
2022-09-10T01:06:41.482Z,78.35
2022-09-10T01:09:11.451Z,85.38
2022-09-10T01:12:05.291Z,65.05
2022-09-10T01:14:56.837Z,67.82
2022-09-10T01:17:31.759Z,90.80
2022-09-10T01:20:16.947Z,77.00
2022-09-10T01:23:01.262Z,69.45
2022-09-10T01:25:41.535Z,73.57
2022-09-10T01:28:16.445Z,70.47
2022-09-10T01:30:51.591Z,78.15
2022-09-10T01:33:27.777Z,90.65
2022-09-10T01:36:00.009Z,90.75
2022-09-10T01:38:31.625Z,87.45
2022-09-10T01:41:00.366Z,80.10
2022-09-10T01:43:34.132Z,80.00
2022-09-10T01:46:19.272Z,86.90
2022-09-10T01:49:13.771Z,95.85
2022-09-10T01:51:56.444Z,90.00
2022-09-10T01:54:39.724Z,67.25
2022-09-10T01:57:20.303Z,64.67
2022-09-10T01:59:56.184Z,83.80
2022-09-10T02:02:28.856Z,78.00
2022-09-10T02:04:59.011Z,94.70
2022-09-10T02:07:30.435Z,90.20
2022-09-10T02:10:00.283Z,74.30
2022-09-10T02:12:33.355Z,101.30
2022-09-10T02:15:17.147Z,84.57
2022-09-10T02:17:58.964Z,88.03
2022-09-10T02:20:30.380Z,76.72
2022-09-10T02:23:01.040Z,86.55
2022-09-10T02:25:34.422Z,81.32
2022-09-10T02:28:04.489Z,86.20
2022-09-10T02:30:35.056Z,95.32
2022-09-10T02:33:03.341Z,79.15
2022-09-10T02:35:32.133Z,102.82
2022-09-10T02:38:00.106Z,85.68
2022-09-10T02:40:31.531Z,111.53
2022-09-10T02:42:59.677Z,77.72
2022-09-10T02:45:29.526Z,106.82
2022-09-10T02:47:58.896Z,124.50
2022-09-10T02:50:27.135Z,115.60
2022-09-10T02:52:55.598Z,96.05
2022-09-10T02:55:23.627Z,96.65
2022-09-10T02:57:52.659Z,89.18
2022-09-10T03:00:21.186Z,95.50
2022-09-10T03:02:51.384Z,77.72
2022-09-10T03:05:20.788Z,83.65
2022-09-10T03:07:49.067Z,86.65
2022-09-10T03:10:18.052Z,105.63
2022-09-10T03:12:48.136Z,114.45
2022-09-10T03:15:16.464Z,94.03
2022-09-10T03:17:45.008Z,112.20
2022-09-10T03:20:13.458Z,124.20
2022-09-10T03:22:42.955Z,145.43
2022-09-10T03:25:14.644Z,128.77
2022-09-10T03:27:42.763Z,141.13
2022-09-10T03:30:11.775Z,142.10
2022-09-10T03:32:39.857Z,139.98
2022-09-10T03:35:10.444Z,145.98
2022-09-10T03:37:39.448Z,125.50
2022-09-10T03:40:11.220Z,132.05
2022-09-10T03:42:39.780Z,178.38
2022-09-10T03:45:09.195Z,158.95
2022-09-10T03:47:38.545Z,152.10
2022-09-10T03:50:08.292Z,154.43
2022-09-10T03:52:37.407Z,180.77
2022-09-10T03:55:06.367Z,149.27
2022-09-10T03:57:35.827Z,168.43
2022-09-10T04:00:04.932Z,186.40
2022-09-10T04:02:44.233Z,174.27
2022-09-10T04:05:14.155Z,158.05
2022-09-10T04:07:42.396Z,184.38
2022-09-10T04:10:10.938Z,137.05
2022-09-10T04:12:42.639Z,181.80
2022-09-10T04:15:11.967Z,177.80
2022-09-10T04:17:40.277Z,180.30
2022-09-10T04:20:09.420Z,150.48
2022-09-10T04:22:37.713Z,167.05
2022-09-10T04:25:06.451Z,228.93
2022-09-10T04:27:34.502Z,214.57
2022-09-10T04:30:05.354Z,160.43
2022-09-10T04:32:33.609Z,209.25
2022-09-10T04:35:02.500Z,168.43
2022-09-10T04:37:31.196Z,151.27
2022-09-10T04:39:59.575Z,184.85
2022-09-10T04:42:28.306Z,207.85
2022-09-10T04:44:57.343Z,187.40
2022-09-10T04:47:26.868Z,184.32
2022-09-10T04:49:55.811Z,221.60
2022-09-10T04:52:24.215Z,174.93
2022-09-10T04:54:53.905Z,189.88
2022-09-10T04:57:22.136Z,248.43
2022-09-10T04:59:50.443Z,170.57
2022-09-10T05:02:19.236Z,241.57
2022-09-10T05:04:48.642Z,243.98
2022-09-10T05:07:16.904Z,224.50
2022-09-10T05:09:45.389Z,245.65
2022-09-10T05:12:19.399Z,213.02
2022-09-10T05:14:48.981Z,238.55
2022-09-10T05:17:17.436Z,242.23
2022-09-10T05:19:45.397Z,257.17
2022-09-10T05:22:15.329Z,211.73
2022-09-10T05:24:44.118Z,232.45
2022-09-10T05:27:12.353Z,230.45
2022-09-10T05:29:41.204Z,255.00
2022-09-10T05:32:10.433Z,223.32
2022-09-10T05:34:39.555Z,263.98
2022-09-10T05:37:08.817Z,287.00
2022-09-10T05:39:39.194Z,234.95
2022-09-10T05:42:07.847Z,206.50
2022-09-10T05:44:36.910Z,243.02
2022-09-10T05:47:05.069Z,203.95
2022-09-10T05:49:33.698Z,186.73
2022-09-10T05:52:03.331Z,219.00
2022-09-10T05:54:31.505Z,215.63
2022-09-10T05:57:00.903Z,192.13
2022-09-10T05:59:30.084Z,197.95
2022-09-10T06:01:58.257Z,223.05
2022-09-10T06:04:27.647Z,188.75
2022-09-10T06:06:56.324Z,178.80
2022-09-10T06:09:24.510Z,204.85
2022-09-10T06:12:08.157Z,206.20
2022-09-10T06:14:37.381Z,184.15
2022-09-10T06:17:05.619Z,171.07
2022-09-10T06:19:34.216Z,179.32
2022-09-10T06:22:02.325Z,147.07
2022-09-10T06:24:34.338Z,132.80
2022-09-10T06:27:02.438Z,134.30
2022-09-10T06:29:36.541Z,152.68
2022-09-10T06:32:05.435Z,137.15
2022-09-10T06:34:33.569Z,146.65
2022-09-10T06:37:03.261Z,147.75
2022-09-10T06:39:32.688Z,101.22
2022-09-10T06:42:02.279Z,165.75
2022-09-10T06:44:50.364Z,113.65
2022-09-10T06:50:39.619Z,132.38
2022-09-10T06:53:07.689Z,96.78
2022-09-10T06:55:36.511Z,135.85
2022-09-10T06:58:04.672Z,118.72
2022-09-10T07:00:34.461Z,108.13
2022-09-10T07:03:02.491Z,131.02
2022-09-10T07:05:33.854Z,111.70
2022-09-10T07:08:03.232Z,134.95
2022-09-10T07:10:32.267Z,96.10
2022-09-10T07:13:02.093Z,86.43
2022-09-10T07:15:30.680Z,120.03
2022-09-10T07:18:00.516Z,99.70
2022-09-10T07:20:29.573Z,78.25
2022-09-10T07:22:58.871Z,102.57
2022-09-10T07:25:28.377Z,125.82
2022-09-10T07:28:13.724Z,117.82
2022-09-10T07:30:45.292Z,98.93
2022-09-10T07:33:16.527Z,119.95
2022-09-10T07:35:45.939Z,80.13
2022-09-10T07:38:16.951Z,83.30
2022-09-10T07:40:47.598Z,56.97
2022-09-10T07:43:15.977Z,51.85
2022-09-10T07:45:44.548Z,66.13
2022-09-10T07:48:13.353Z,82.60
2022-09-10T07:50:43.476Z,49.28
2022-09-10T07:53:11.550Z,43.10
2022-09-10T07:55:40.212Z,56.42
2022-09-10T07:58:08.631Z,47.65
2022-09-10T08:00:38.132Z,40.03
2022-09-10T08:03:12.224Z,40.55
2022-09-10T08:05:41.122Z,33.08
2022-09-10T08:08:11.247Z,55.38
2022-09-10T08:10:39.339Z,48.15
2022-09-10T08:13:08.040Z,46.03
2022-09-10T08:15:36.390Z,37.58
2022-09-10T08:18:05.199Z,35.72
2022-09-10T08:20:33.572Z,29.40
2022-09-10T08:23:02.283Z,34.75
2022-09-10T08:25:33.430Z,33.40
2022-09-10T08:28:01.876Z,41.90
2022-09-10T08:30:32.253Z,41.15
2022-09-10T08:33:01.085Z,69.18
2022-09-10T08:35:29.175Z,50.33
2022-09-10T08:37:57.171Z,59.92
2022-09-10T08:40:25.751Z,41.63
2022-09-10T08:42:56.430Z,39.13
2022-09-10T08:45:29.699Z,43.28
2022-09-10T08:48:03.350Z,49.63
2022-09-10T08:50:39.181Z,43.20
2022-09-10T08:53:25.989Z,35.50
2022-09-10T08:55:58.375Z,31.60
2022-09-10T08:58:33.126Z,25.33
2022-09-10T09:01:05.926Z,24.52
2022-09-10T09:03:41.410Z,24.67
2022-09-10T09:06:25.097Z,30.33
2022-09-10T09:08:54.422Z,22.38
2022-09-10T09:11:34.644Z,18.42
2022-09-10T09:14:16.269Z,22.17
2022-09-10T09:17:06.071Z,18.67
2022-09-10T09:19:35.903Z,29.48
2022-09-10T09:22:14.560Z,21.80
2022-09-10T09:24:51.285Z,43.03
2022-09-10T09:27:21.301Z,51.90
2022-09-10T09:30:00.075Z,46.88
2022-09-10T09:32:33.418Z,50.75
2022-09-10T09:35:10.106Z,47.42
2022-09-10T09:37:43.341Z,43.92
2022-09-10T09:40:17.712Z,41.75
2022-09-10T09:45:25.346Z,44.38
2022-09-10T09:47:54.548Z,43.78
2022-09-10T09:50:23.861Z,70.32
2022-09-10T09:52:56.309Z,38.65
2022-09-10T09:55:33.587Z,36.90
2022-09-10T09:58:31.128Z,44.88
2022-09-10T10:01:19.192Z,48.83
2022-09-10T10:03:53.057Z,66.55
2022-09-10T10:06:24.626Z,57.58
2022-09-10T10:09:04.692Z,54.00
2022-09-10T10:11:46.243Z,46.97
2022-09-10T10:14:26.595Z,44.53
2022-09-10T10:17:00.380Z,41.42
2022-09-10T10:19:32.897Z,42.38
2022-09-10T10:22:26.061Z,35.30
2022-09-10T10:24:54.910Z,36.50
2022-09-10T10:27:30.245Z,27.23
2022-09-10T10:30:01.542Z,26.98
2022-09-10T10:32:41.517Z,31.55
2022-09-10T10:35:30.363Z,18.55
2022-09-10T10:38:20.997Z,16.70
2022-09-10T10:40:57.487Z,19.38
2022-09-10T10:43:38.831Z,15.05
2022-09-10T10:46:15.202Z,20.20
2022-09-10T10:48:58.316Z,17.90
2022-09-10T10:51:40.152Z,22.80
2022-09-10T10:54:23.666Z,20.38
2022-09-10T10:57:00.408Z,15.80
2022-09-10T10:59:46.107Z,16.98
2022-09-10T11:02:19.445Z,14.38
2022-09-10T11:04:51.352Z,12.77
2022-09-10T11:07:23.590Z,18.13
2022-09-10T11:09:59.028Z,16.45
2022-09-10T11:12:32.922Z,12.73
2022-09-10T11:15:04.003Z,14.52
2022-09-10T11:17:38.459Z,11.35
2022-09-10T11:20:28.570Z,11.27
2022-09-10T11:23:04.727Z,10.88
2022-09-10T11:25:38.340Z,11.63
2022-09-10T11:28:13.456Z,10.52
2022-09-10T11:30:46.394Z,11.48
2022-09-10T11:33:21.178Z,13.63
2022-09-10T11:35:56.246Z,10.82
2022-09-10T11:38:30.567Z,9.25
2022-09-10T11:41:09.042Z,9.50
2022-09-10T11:43:45.050Z,9.40
2022-09-10T11:46:16.735Z,8.88
2022-09-10T11:48:49.496Z,9.48
2022-09-10T11:51:25.914Z,15.73
2022-09-10T11:53:56.323Z,8.93
2022-09-10T11:56:50.567Z,10.60
2022-09-10T11:59:33.110Z,8.80
2022-09-10T12:02:22.082Z,9.32
2022-09-10T12:04:58.516Z,8.40
2022-09-10T12:07:41.168Z,6.55
2022-09-10T12:10:19.672Z,6.00
2022-09-10T12:12:50.272Z,5.50
2022-09-10T12:15:22.107Z,7.05
2022-09-10T12:17:55.001Z,5.68
2022-09-10T12:20:30.083Z,4.97
2022-09-10T12:23:00.283Z,6.63
2022-09-10T12:25:34.315Z,6.15
2022-09-10T12:28:05.418Z,4.90
2022-09-10T12:31:04.259Z,4.47
2022-09-10T12:34:08.296Z,9.13
2022-09-10T12:37:19.104Z,5.45
2022-09-10T12:39:49.576Z,4.80
2022-09-10T12:42:29.790Z,5.78
2022-09-10T12:44:58.312Z,6.75
2022-09-10T12:47:45.167Z,4.45
2022-09-10T12:50:37.245Z,4.75
2022-09-10T12:53:50.636Z,5.20
2022-09-10T12:57:00.602Z,7.18
2022-09-10T13:00:03.640Z,6.18
2022-09-10T13:02:34.860Z,5.85
2022-09-10T13:05:06.235Z,5.10
2022-09-10T13:07:41.756Z,3.95
2022-09-10T13:10:22.030Z,3.38
2022-09-10T13:12:55.154Z,5.55
2022-09-10T13:15:27.492Z,5.28
2022-09-10T13:18:25.903Z,4.00
2022-09-10T13:20:54.345Z,6.25
2022-09-10T13:23:47.583Z,3.38
2022-09-10T13:26:37.461Z,5.40
2022-09-10T13:29:11.225Z,4.40
2022-09-10T13:34:59.349Z,3.78
2022-09-10T13:37:57.103Z,4.00
2022-09-10T13:41:02.554Z,7.47
2022-09-10T13:43:58.441Z,7.78
2022-09-10T13:46:35.706Z,6.65
2022-09-10T13:49:14.109Z,6.15
2022-09-10T13:51:48.616Z,4.78
2022-09-10T13:54:34.451Z,5.47
2022-09-10T13:57:09.261Z,4.68
2022-09-10T13:59:39.541Z,5.10
2022-09-10T14:02:07.705Z,5.85
2022-09-10T14:04:44.252Z,5.45
2022-09-10T14:07:18.048Z,5.00
2022-09-10T14:09:49.037Z,5.57
2022-09-10T14:12:26.128Z,5.75
2022-09-10T14:14:59.057Z,7.25
2022-09-10T14:17:31.564Z,4.88
2022-09-10T14:20:04.570Z,5.65
2022-09-10T14:22:33.024Z,6.88
2022-09-10T14:25:02.845Z,7.22
2022-09-10T14:27:33.256Z,5.93
2022-09-10T14:30:23.259Z,5.57
2022-09-10T14:32:52.241Z,5.30
2022-09-10T14:35:43.075Z,6.20
2022-09-10T14:38:27.393Z,8.35
2022-09-10T14:40:58.691Z,10.40
2022-09-10T14:43:30.587Z,8.73
2022-09-10T14:45:59.094Z,7.57
2022-09-10T14:48:37.297Z,6.57
2022-09-10T14:51:17.852Z,7.28
2022-09-10T14:53:47.413Z,5.63
2022-09-10T14:56:25.955Z,6.32
2022-09-10T14:59:00.407Z,6.13
2022-09-10T15:01:29.301Z,6.00
2022-09-10T15:03:59.197Z,5.85
2022-09-10T15:06:28.592Z,5.82
2022-09-10T15:08:57.073Z,6.28
2022-09-10T15:11:27.979Z,5.53
2022-09-10T15:13:58.729Z,7.80
2022-09-10T15:16:27.742Z,6.60
2022-09-10T15:18:55.872Z,5.97
2022-09-10T15:21:25.393Z,5.60
2022-09-10T15:23:55.118Z,7.13
2022-09-10T15:26:23.182Z,7.00
2022-09-10T15:28:56.180Z,7.07
2022-09-10T15:31:24.590Z,6.60
2022-09-10T15:33:53.200Z,6.55
2022-09-10T15:36:24.459Z,6.43
2022-09-10T15:39:09.469Z,6.20
2022-09-10T15:41:42.872Z,6.47
2022-09-10T15:44:33.936Z,7.20
2022-09-10T15:47:11.131Z,6.20
2022-09-10T15:49:41.716Z,6.15
2022-09-10T15:52:09.984Z,5.50
2022-09-10T15:54:43.126Z,5.80
2022-09-10T15:57:11.743Z,4.63
2022-09-10T15:59:40.556Z,5.45
2022-09-10T16:02:13.146Z,4.03
2022-09-10T16:04:43.195Z,4.72
2022-09-10T16:07:12.072Z,6.38
2022-09-10T16:09:42.723Z,5.35
2022-09-10T16:12:12.368Z,6.95
2022-09-10T16:14:40.810Z,11.48
2022-09-10T16:17:10.564Z,10.43
2022-09-10T16:19:39.419Z,10.27
2022-09-10T16:22:08.234Z,10.90
2022-09-10T16:24:36.693Z,10.57
2022-09-10T16:27:10.289Z,9.00
2022-09-10T16:29:40.105Z,8.43
2022-09-10T16:32:19.811Z,8.45
2022-09-10T16:34:51.015Z,7.40
2022-09-10T16:37:25.739Z,7.18
2022-09-10T16:39:57.033Z,7.85
2022-09-10T16:42:27.361Z,6.57
2022-09-10T16:44:57.956Z,8.30
2022-09-10T16:50:23.315Z,7.80
2022-09-10T16:52:52.178Z,12.50
2022-09-10T16:55:23.936Z,9.50
2022-09-10T16:57:56.128Z,8.25
2022-09-10T17:00:24.884Z,8.85
2022-09-10T17:02:52.975Z,8.82
2022-09-10T17:05:23.305Z,9.40
2022-09-10T17:07:52.021Z,9.88
2022-09-10T17:10:20.840Z,10.65
2022-09-10T17:12:48.905Z,9.10
2022-09-10T17:15:18.365Z,10.35
2022-09-10T17:17:46.706Z,11.07
2022-09-10T17:20:14.894Z,11.50
2022-09-10T17:22:43.025Z,12.23
2022-09-10T17:25:12.068Z,12.60
2022-09-10T17:27:40.459Z,12.27
2022-09-10T17:30:09.913Z,13.38
2022-09-10T17:32:40.208Z,13.60
2022-09-10T17:35:10.789Z,13.52
2022-09-10T17:37:41.295Z,13.80
2022-09-10T17:40:13.448Z,17.52
2022-09-10T17:42:42.256Z,19.05
2022-09-10T17:45:11.247Z,21.98
2022-09-10T17:47:40.629Z,22.27
2022-09-10T17:50:09.872Z,25.27
2022-09-10T17:52:37.913Z,25.92
2022-09-10T17:55:06.487Z,23.45
2022-09-10T17:57:35.584Z,20.17
2022-09-10T18:00:04.369Z,22.58
2022-09-10T18:02:32.664Z,22.98
2022-09-10T18:05:02.049Z,23.15
2022-09-10T18:07:30.075Z,25.75
2022-09-10T18:09:58.028Z,27.85
2022-09-10T18:12:26.050Z,29.15
2022-09-10T18:14:54.160Z,27.52
2022-09-10T18:17:22.477Z,26.70
2022-09-10T18:19:51.849Z,25.10
2022-09-10T18:22:21.859Z,23.85
2022-09-10T18:24:50.164Z,24.52
2022-09-10T18:27:18.215Z,24.98
2022-09-10T18:29:46.213Z,28.45
2022-09-10T18:32:16.010Z,25.83
2022-09-10T18:34:44.393Z,28.83
2022-09-10T18:37:13.582Z,30.58
2022-09-10T18:39:42.910Z,28.52
2022-09-10T18:42:11.292Z,40.00
2022-09-10T18:44:40.234Z,28.88
2022-09-10T18:47:27.948Z,28.15
2022-09-10T18:49:59.010Z,22.80
2022-09-10T18:52:27.361Z,22.50
2022-09-10T18:54:56.736Z,23.65
2022-09-10T18:57:24.763Z,23.90
2022-09-10T18:59:55.059Z,24.58
2022-09-10T19:02:23.930Z,23.42
2022-09-10T19:05:10.135Z,25.75
2022-09-10T19:07:38.561Z,30.77
2022-09-10T19:10:08.999Z,28.17
2022-09-10T19:12:36.961Z,25.00
2022-09-10T19:15:05.533Z,23.38
2022-09-10T19:17:33.540Z,22.08
2022-09-10T19:20:01.598Z,22.88
2022-09-10T19:22:29.658Z,25.73
2022-09-10T19:24:57.648Z,22.35
2022-09-10T19:27:27.108Z,21.48
2022-09-10T19:29:55.821Z,20.92
2022-09-10T19:32:23.845Z,21.33
2022-09-10T19:34:52.103Z,35.13
2022-09-10T19:37:20.866Z,33.50
2022-09-10T19:39:49.046Z,29.38
2022-09-10T19:42:17.258Z,25.38
2022-09-10T19:44:46.626Z,22.77
2022-09-10T19:47:14.779Z,22.20
2022-09-10T19:49:43.136Z,21.90
2022-09-10T19:52:11.246Z,19.02
2022-09-10T19:54:39.293Z,24.58
2022-09-10T19:57:07.301Z,23.10
2022-09-10T19:59:35.648Z,21.73
2022-09-10T20:02:05.125Z,26.33
2022-09-10T20:04:33.920Z,27.15
2022-09-10T20:07:02.096Z,25.05
2022-09-10T20:09:30.196Z,21.65
2022-09-10T20:11:58.307Z,23.23
2022-09-10T20:14:26.366Z,22.45
2022-09-10T20:16:54.630Z,37.70
2022-09-10T20:19:24.151Z,34.42
2022-09-10T20:21:52.187Z,33.92
2022-09-10T20:24:20.262Z,37.10
2022-09-10T20:26:49.068Z,36.53
2022-09-10T20:29:19.087Z,34.00
2022-09-10T20:31:48.510Z,34.17
2022-09-10T20:34:19.419Z,32.97
2022-09-10T20:36:51.173Z,35.60
2022-09-10T20:39:21.134Z,41.70
2022-09-10T20:41:49.560Z,39.10
2022-09-10T20:44:19.392Z,43.55
2022-09-10T20:46:47.747Z,41.13
2022-09-10T20:49:16.426Z,39.72
2022-09-10T20:51:44.772Z,43.22
2022-09-10T20:54:15.958Z,38.45
2022-09-10T20:56:44.334Z,37.72
2022-09-10T20:59:13.602Z,36.28
2022-09-10T21:01:43.725Z,36.38
2022-09-10T21:04:11.769Z,40.45
2022-09-10T21:06:40.752Z,35.90
2022-09-10T21:09:08.754Z,36.00
2022-09-10T21:11:38.411Z,38.17
2022-09-10T21:14:08.277Z,37.63
2022-09-10T21:16:37.867Z,38.63
2022-09-10T21:19:08.634Z,38.72
2022-09-10T21:21:39.357Z,40.20
2022-09-10T21:24:09.664Z,43.40
2022-09-10T21:26:40.512Z,38.95
2022-09-10T21:29:11.708Z,41.50
2022-09-10T21:31:40.158Z,38.80
2022-09-10T21:34:08.787Z,40.22
2022-09-10T21:36:38.533Z,40.10
2022-09-10T21:39:09.702Z,39.58
2022-09-10T21:41:41.278Z,43.45
2022-09-10T21:44:14.034Z,41.25
2022-09-10T21:46:42.544Z,45.60
2022-09-10T21:49:10.655Z,46.35
2022-09-10T21:51:38.920Z,42.13
2022-09-10T21:54:07.104Z,45.45
2022-09-10T21:56:35.049Z,48.25
2022-09-10T21:59:04.776Z,45.60
2022-09-10T22:01:33.538Z,45.70
2022-09-10T22:04:02.311Z,48.13
2022-09-10T22:06:31.857Z,52.95
2022-09-10T22:09:01.200Z,46.95
2022-09-10T22:11:31.721Z,53.83
2022-09-10T22:14:01.853Z,53.05
2022-09-10T22:16:32.371Z,57.53
2022-09-10T22:19:02.802Z,53.70
2022-09-10T22:21:31.546Z,56.33
2022-09-10T22:23:59.884Z,64.65
2022-09-10T22:26:29.165Z,58.15
2022-09-10T22:28:59.933Z,59.63
2022-09-10T22:31:29.554Z,68.53
2022-09-10T22:34:00.468Z,61.10
2022-09-10T22:36:31.520Z,60.03
2022-09-10T22:39:01.818Z,62.88
2022-09-10T22:41:31.621Z,67.60
2022-09-10T22:43:59.855Z,66.95
2022-09-10T22:46:28.415Z,71.00
2022-09-10T22:48:58.475Z,67.00
2022-09-10T22:51:28.520Z,69.57
2022-09-10T22:53:58.129Z,64.55
2022-09-10T22:56:27.642Z,60.47
2022-09-10T22:58:57.984Z,64.15
2022-09-10T23:01:28.542Z,63.47
2022-09-10T23:03:59.236Z,67.10
2022-09-10T23:06:30.611Z,63.83
2022-09-10T23:09:03.876Z,62.75
2022-09-10T23:11:32.947Z,61.83
2022-09-10T23:14:02.882Z,72.93
2022-09-10T23:16:32.761Z,61.55
2022-09-10T23:19:04.666Z,71.80
2022-09-10T23:21:34.928Z,72.95
2022-09-10T23:24:05.350Z,70.03
2022-09-10T23:26:54.303Z,68.30
2022-09-10T23:29:23.882Z,67.70
2022-09-10T23:31:53.338Z,74.03
2022-09-10T23:34:23.703Z,67.32
2022-09-10T23:36:53.476Z,66.90
2022-09-10T23:39:24.269Z,61.53
2022-09-10T23:41:54.770Z,68.07
2022-09-10T23:44:23.102Z,65.97
2022-09-10T23:46:51.235Z,70.32
2022-09-10T23:49:19.268Z,65.43
2022-09-10T23:51:48.983Z,67.72
2022-09-10T23:54:17.400Z,71.50
2022-09-10T23:56:45.738Z,77.38
2022-09-10T23:59:15.265Z,88.35
